Hutchinson, KS (67501)

1:57 AM CDT on August 27, 2016 (GMT -0500)
KKSHUTCH9 | | Change Station

Elev 1549 ft 38.08 °N, 97.92 °W | Updated 4 seconds ago

Clear
Clear
72.9 °F
Feels Like 70 °F
N
5.4
Wind Variable Wind from SSE
Gusts 6.9 mph

Today
High -- | Low -- °F
--% Chance of Precip.
Yesterday
High -- | Low -- °F
Precip. -- in
Pressure 29.93 in
Visibility 10.0 miles
Clouds Clear
Heat Index 70 °F
Dew Point 70 °F
Humidity 91%
Rainfall 0.00 in
Snow Depth Not available.
6:57 AM 8:07 PM
Waning Crescent, 27% visible
METAR KHUT 270652Z AUTO 16004KT 10SM CLR 22/20 A2999 RMK AO2 SLP135 T02170200
Pressure 29.93 in
Visibility 10.0 miles
Clouds Clear
Heat Index 70 °F
Dew Point 70 °F
Humidity 91%
Rainfall 0.00 in
Snow Depth Not available.
6:57 AM 8:07 PM
Waning Crescent, 27% visible
METAR KHUT 270652Z AUTO 16004KT 10SM CLR 22/20 A2999 RMK AO2 SLP135 T02170200

10-Day Weather Forecast

Almanac

Astronomy

Aug. 27, 2016 Rise Set
Actual Time
Civil Twilight
Nautical Twilight
Astronomical Twilight
Moon
Length of Visible Light
Length of Day
Tomorrow will be .
, % of the Moon is Illuminated

Today's Extremes

State Highs State Lows

Community

WunderPhotos

Upload Photos

1,935,303 photos uploaded!

WunderBlog® & News

Nearby

Air Quality

  Air Quality AQ Index Pollutant
Not available.

Snow Depth

Station Depth Elevation

Earthquake Activity

City Distance Mag. Time & Date
Minimum magnitude displayed is 2.5.

Coastal Water Temperatures

Place Temperature

Stations

Nearby Weather Stations

Station Location Temp. Windchill Dew Point Humidity Wind Precip. Elev Updated Type
                   

Watches & Warnings

There are currently no watches in effect.